Time;durP1;ratioP1;P1;durP2;ratioP2;P2;SDS_P1;SDS_P2;PMS_P1;PMS_P2;Temp;Humidity;BMP_temperature;BMP_pressure;BME280_temperature;BME280_humidity;BME280_pressure;Samples;Min_cycle;Max_cycle;Signal;HPM_P1;HPM_P2
2021/06/22 17:21:54;;;;;;;4.43;3.88;;;;;;;24.67;100.00;95921.66;5075003;27;20623;-53
2021/06/22 17:24:24;;;;;;;5.03;3.88;;;;;;;24.51;100.00;95923.31;5081017;28;20090;-46
2021/06/22 17:26:52;;;;;;;5.78;3.05;;;;;;;24.36;100.00;95922.00;5068728;28;20072;-45
2021/06/22 17:29:21;;;;;;;4.72;2.90;;;;;;;24.25;100.00;95922.06;5064120;28;20075;-45
2021/06/22 17:31:49;;;;;;;5.18;2.45;;;;;;;24.14;100.00;95929.16;5082938;28;20080;-47
2021/06/22 17:34:18;;;;;;;4.40;2.47;;;;;;;24.01;100.00;95932.97;5075511;28;20079;-44
2021/06/22 17:36:46;;;;;;;4.00;2.30;;;;;;;23.87;100.00;95937.00;5059891;27;20147;-44
2021/06/22 17:39:16;;;;;;;3.00;2.20;;;;;;;23.82;100.00;95940.44;5071184;28;20079;-49
2021/06/22 17:41:44;;;;;;;4.65;2.45;;;;;;;23.76;100.00;95935.19;5074878;27;20068;-46
2021/06/22 17:44:13;;;;;;;4.28;2.20;;;;;;;23.62;100.00;95926.56;5078459;28;20168;-44
2021/06/22 17:46:43;;;;;;;5.45;2.10;;;;;;;23.54;100.00;95926.94;5081871;28;20116;-48
2021/06/22 17:49:11;;;;;;;2.90;2.00;;;;;;;23.65;100.00;95928.78;5082083;28;20079;-47
2021/06/22 17:51:39;;;;;;;3.88;2.22;;;;;;;23.89;100.00;95946.50;5059940;28;20065;-52
2021/06/22 17:54:08;;;;;;;2.83;2.10;;;;;;;23.90;100.00;95945.44;5053728;28;23065;-46
2021/06/22 17:56:38;;;;;;;3.03;2.30;;;;;;;24.18;100.00;95949.16;5074184;28;20070;-46
2021/06/22 17:59:06;;;;;;;4.47;2.15;;;;;;;24.19;100.00;95950.81;5082687;28;20561;-47
2021/06/22 18:01:35;;;;;;;3.55;2.17;;;;;;;24.15;100.00;95965.78;5080970;28;20074;-49
2021/06/22 18:04:03;;;;;;;3.95;2.42;;;;;;;24.06;100.00;95976.16;5083563;28;20068;-46
2021/06/22 18:06:32;;;;;;;4.32;2.50;;;;;;;24.02;100.00;95995.72;5086505;28;20610;-46
2021/06/22 18:09:00;;;;;;;3.15;2.22;;;;;;;24.06;100.00;95988.81;5082700;28;20070;-50
2021/06/22 18:11:28;;;;;;;5.40;2.60;;;;;;;24.04;100.00;95985.53;5076495;28;20060;-47
2021/06/22 18:13:58;;;;;;;3.63;2.38;;;;;;;23.65;100.00;95994.19;5078440;28;20060;-52
2021/06/22 18:16:28;;;;;;;3.15;2.47;;;;;;;23.64;100.00;95984.50;5056426;28;20075;-49
2021/06/22 18:18:56;;;;;;;3.65;2.80;;;;;;;23.71;100.00;95984.38;5077473;28;20292;-50
2021/06/22 18:21:25;;;;;;;4.93;3.00;;;;;;;23.63;100.00;95976.63;5075028;27;20443;-49
2021/06/22 18:23:53;;;;;;;4.10;3.20;;;;;;;23.75;100.00;95974.78;5077805;28;20075;-50
2021/06/22 18:26:25;;;;;;;5.72;3.58;;;;;;;23.62;100.00;95989.28;5077688;28;20063;-46
2021/06/22 18:28:53;;;;;;;3.85;3.40;;;;;;;23.41;100.00;95988.06;5081101;28;20060;-50
2021/06/22 18:31:23;;;;;;;5.30;3.88;;;;;;;23.50;100.00;95998.44;5070538;28;20064;-46
2021/06/22 18:33:51;;;;;;;5.72;3.78;;;;;;;23.39;100.00;95998.22;5065054;28;20060;-51
2021/06/22 18:36:20;;;;;;;5.60;3.97;;;;;;;23.07;100.00;96002.38;5060029;28;20123;-48
2021/06/22 18:38:48;;;;;;;5.30;4.13;;;;;;;23.04;100.00;96000.94;5071272;28;20060;-47
2021/06/22 18:41:17;;;;;;;8.60;4.72;;;;;;;22.82;100.00;95995.31;5069412;28;20066;-46
2021/06/22 18:43:45;;;;;;;6.88;4.97;;;;;;;22.53;100.00;96005.09;5067359;28;20095;-46
2021/06/22 18:46:14;;;;;;;6.45;5.13;;;;;;;22.24;100.00;96006.78;5062392;28;20084;-46
2021/06/22 18:48:43;;;;;;;7.22;5.10;;;;;;;22.05;100.00;96016.72;5062211;28;20069;-49
2021/06/22 18:51:12;;;;;;;8.55;5.78;;;;;;;21.91;100.00;96018.75;5064266;28;20123;-46
2021/06/22 18:53:40;;;;;;;10.68;5.97;;;;;;;21.83;100.00;96023.63;5073472;28;20067;-49
2021/06/22 18:56:08;;;;;;;7.35;5.95;;;;;;;21.70;100.00;96038.03;5069713;28;20063;-47
2021/06/22 18:58:37;;;;;;;10.60;5.80;;;;;;;21.56;100.00;96026.63;5065001;28;20087;-48
2021/06/22 19:01:05;;;;;;;6.55;5.88;;;;;;;21.62;100.00;96039.16;5072529;28;20084;-48
2021/06/22 19:03:34;;;;;;;8.80;6.43;;;;;;;21.59;100.00;96044.16;5057991;28;20057;-49
2021/06/22 19:06:04;;;;;;;9.68;6.43;;;;;;;21.48;100.00;96043.84;5064690;28;20072;-46
2021/06/22 19:08:39;;;;;;;6.65;6.05;;;;;;;21.46;100.00;96037.88;5066408;28;20056;-46
2021/06/22 19:11:08;;;;;;;7.72;6.40;;;;;;;21.29;100.00;96045.66;5064536;28;20080;-49
2021/06/22 19:13:36;;;;;;;9.63;6.47;;;;;;;21.30;100.00;96063.41;5065666;28;20082;-46
2021/06/22 19:16:05;;;;;;;10.35;7.60;;;;;;;21.27;100.00;96079.94;5076111;28;20094;-45
2021/06/22 19:18:35;;;;;;;9.23;7.75;;;;;;;21.15;100.00;96083.56;5064792;28;20064;-49
2021/06/22 19:21:06;;;;;;;9.50;8.10;;;;;;;21.16;100.00;96087.88;5068345;28;20439;-50
2021/06/22 19:23:35;;;;;;;10.18;8.95;;;;;;;21.35;100.00;96081.53;5065466;28;20060;-46
2021/06/22 19:26:04;;;;;;;11.45;9.50;;;;;;;21.36;100.00;96077.81;5070897;28;20071;-47
2021/06/22 19:28:33;;;;;;;10.38;9.38;;;;;;;21.31;100.00;96073.09;5066238;28;20078;-54
2021/06/22 19:31:01;;;;;;;10.43;9.43;;;;;;;21.33;100.00;96070.19;5066824;28;20072;-46
2021/06/22 19:33:33;;;;;;;11.35;10.15;;;;;;;21.35;100.00;96070.81;5066714;28;20064;-51
2021/06/22 19:36:03;;;;;;;11.30;9.90;;;;;;;21.35;100.00;96081.53;4976922;28;20511;-49
2021/06/22 19:38:42;;;;;;;11.25;10.07;;;;;;;21.39;100.00;96088.09;5042275;28;20064;-49
2021/06/22 19:41:12;;;;;;;11.02;9.93;;;;;;;21.37;100.00;96084.84;5064618;28;20075;-50
2021/06/22 19:43:56;;;;;;;12.68;10.18;;;;;;;21.28;100.00;96092.31;5065692;28;20088;-49
2021/06/22 19:46:26;;;;;;;12.02;10.13;;;;;;;21.43;100.00;96096.53;5069371;28;20405;-51
2021/06/22 19:48:55;;;;;;;12.20;10.90;;;;;;;21.47;100.00;96103.94;5041823;28;20037;-46
2021/06/22 19:51:29;;;;;;;13.05;11.57;;;;;;;21.36;100.00;96123.41;5040434;28;20559;-46
2021/06/22 19:54:08;;;;;;;13.18;11.90;;;;;;;21.43;100.00;96139.44;5031723;28;20069;-48
2021/06/22 19:56:37;;;;;;;14.15;12.75;;;;;;;21.42;100.00;96143.19;5014034;28;20045;-45
2021/06/22 19:59:06;;;;;;;18.77;13.13;;;;;;;21.39;100.00;96148.97;5015891;28;20052;-48
2021/06/22 20:01:34;;;;;;;16.20;14.50;;;;;;;21.52;100.00;96149.69;5043411;28;20518;-48
2021/06/22 20:04:05;;;;;;;15.43;13.80;;;;;;;21.74;100.00;96152.75;5021219;28;20076;-46
2021/06/22 20:06:34;;;;;;;15.80;13.43;;;;;;;21.49;100.00;96149.31;5044173;28;20079;-49
2021/06/22 20:09:04;;;;;;;15.48;14.07;;;;;;;21.50;100.00;96149.06;5045374;28;20064;-55
2021/06/22 20:11:33;;;;;;;16.92;14.77;;;;;;;21.40;100.00;96143.38;5042541;28;20084;-47
2021/06/22 20:14:01;;;;;;;17.08;15.57;;;;;;;21.42;100.00;96146.69;5031057;28;20522;-47
2021/06/22 20:16:30;;;;;;;16.55;14.90;;;;;;;21.65;100.00;96143.38;5047281;28;21183;-47
2021/06/22 20:18:58;;;;;;;17.27;15.50;;;;;;;21.42;100.00;96146.69;5048247;28;20481;-51
2021/06/22 20:21:27;;;;;;;17.08;15.45;;;;;;;21.59;100.00;96148.81;5041646;28;20069;-47
2021/06/22 20:23:55;;;;;;;17.83;16.05;;;;;;;21.55;100.00;96140.38;5029668;28;20065;-48
2021/06/22 20:26:26;;;;;;;17.35;15.63;;;;;;;21.35;100.00;96147.78;5025882;28;20061;-46
2021/06/22 20:28:54;;;;;;;17.80;16.13;;;;;;;21.52;100.00;96141.63;5040589;28;20585;-46
2021/06/22 20:31:23;;;;;;;17.48;15.85;;;;;;;21.51;100.00;96153.41;5025914;28;20084;-46
2021/06/22 20:33:51;;;;;;;18.50;16.70;;;;;;;21.35;100.00;96169.25;5045368;28;20087;-46
2021/06/22 20:36:20;;;;;;;18.27;16.48;;;;;;;21.32;100.00;96171.28;5027064;28;20061;-49
2021/06/22 20:38:49;;;;;;;18.60;16.83;;;;;;;21.24;100.00;96176.13;5033412;28;20080;-47
2021/06/22 20:41:17;;;;;;;18.10;16.45;;;;;;;21.40;100.00;96167.53;5046398;28;20064;-46
2021/06/22 20:43:47;;;;;;;18.70;16.90;;;;;;;21.38;100.00;96180.34;5046154;28;20479;-45
2021/06/22 20:46:15;;;;;;;18.60;16.80;;;;;;;21.19;100.00;96181.28;5049245;28;20060;-48
2021/06/22 20:48:46;;;;;;;20.42;16.77;;;;;;;21.40;100.00;96170.22;5041435;28;20535;-45
2021/06/22 20:51:15;;;;;;;18.13;16.30;;;;;;;21.12;100.00;96173.31;5038662;28;20075;-47
2021/06/22 20:53:43;;;;;;;18.15;16.20;;;;;;;21.00;100.00;96162.47;5045730;28;20069;-45
2021/06/22 20:56:11;;;;;;;17.23;15.52;;;;;;;21.22;100.00;96164.78;5041123;28;20099;-45
2021/06/22 20:58:40;;;;;;;18.23;16.42;;;;;;;21.10;100.00;96178.06;5046040;28;20545;-47
2021/06/22 21:01:10;;;;;;;17.88;16.05;;;;;;;20.96;100.00;96193.44;5048119;28;20084;-48
2021/06/22 21:03:41;;;;;;;;;;;;;;;21.02;100.00;96203.28;5046395;28;20539;-48
2021/06/22 21:06:09;;;;;;;;;;;;;;;21.10;100.00;96186.94;5048472;28;19967;-45
2021/06/22 21:08:37;;;;;;;16.50;14.63;;;;;;;21.05;100.00;96176.03;5040688;28;19956;-44
2021/06/22 21:11:06;;;;;;;17.70;14.20;;;;;;;21.06;100.00;96156.25;5048769;28;20068;-48
2021/06/22 21:13:34;;;;;;;17.10;15.15;;;;;;;21.12;100.00;96157.22;5044746;28;20095;-47
2021/06/22 21:16:02;;;;;;;16.83;15.07;;;;;;;21.24;100.00;96158.16;5047593;28;20100;-47
2021/06/22 21:18:32;;;;;;;16.92;15.18;;;;;;;21.32;100.00;96154.38;5038278;28;20072;-46
2021/06/22 21:21:01;;;;;;;18.35;15.65;;;;;;;21.15;100.00;96164.00;5043608;28;20075;-46
2021/06/22 21:23:29;;;;;;;17.45;15.40;;;;;;;21.06;100.00;96172.34;5040538;28;20084;-50
2021/06/22 21:25:58;;;;;;;17.50;15.77;;;;;;;21.02;100.00;96168.41;5047523;28;20061;-45
2021/06/22 21:28:26;;;;;;;17.75;15.98;;;;;;;21.06;100.00;96175.00;5044083;28;20083;-46
2021/06/22 21:30:54;;;;;;;18.73;16.63;;;;;;;20.96;100.00;96180.03;5043986;28;20061;-45
2021/06/22 21:33:23;;;;;;;18.83;16.85;;;;;;;20.86;100.00;96183.19;5045347;28;20075;-51
2021/06/22 21:35:53;;;;;;;21.05;17.42;;;;;;;20.89;100.00;96179.25;5043703;28;20076;-47
2021/06/22 21:38:21;;;;;;;19.00;16.98;;;;;;;20.74;100.00;96182.22;5039816;28;20549;-49
2021/06/22 21:40:49;;;;;;;20.60;18.38;;;;;;;20.70;100.00;96183.69;5043231;28;20092;-51
2021/06/22 21:43:18;;;;;;;19.60;17.70;;;;;;;20.52;100.00;96192.44;5020133;28;20074;-47
2021/06/22 21:45:46;;;;;;;19.95;17.95;;;;;;;20.74;100.00;96187.56;5016145;28;20077;-48
2021/06/22 21:48:14;;;;;;;20.23;18.10;;;;;;;20.55;100.00;96196.56;5015236;28;20065;-45
2021/06/22 21:50:43;;;;;;;19.38;17.45;;;;;;;20.55;100.00;96202.72;5022432;28;20061;-46
2021/06/22 21:53:12;;;;;;;18.48;16.50;;;;;;;20.45;100.00;96198.84;5027957;28;20065;-53
2021/06/22 21:55:41;;;;;;;18.08;16.33;;;;;;;20.68;100.00;96195.66;5025684;28;20092;-47
2021/06/22 21:58:10;;;;;;;19.45;17.33;;;;;;;20.58;100.00;96196.13;5049009;28;20317;-45
2021/06/22 22:00:38;;;;;;;18.20;16.40;;;;;;;20.46;100.00;96187.09;5023064;28;20099;-47
2021/06/22 22:03:07;;;;;;;19.10;17.10;;;;;;;20.48;100.00;96193.06;5018943;28;20107;-47
2021/06/22 22:05:36;;;;;;;19.55;17.25;;;;;;;20.46;100.00;96200.47;5015198;28;20069;-46
2021/06/22 22:08:05;;;;;;;18.58;16.73;;;;;;;20.45;100.00;96201.53;5023488;28;20448;-45
2021/06/22 22:10:35;;;;;;;18.45;16.73;;;;;;;20.48;100.00;96195.75;5022235;28;20088;-45
2021/06/22 22:13:04;;;;;;;19.45;17.50;;;;;;;20.42;100.00;96196.59;5029896;28;20096;-47
2021/06/22 22:15:33;;;;;;;17.83;15.80;;;;;;;20.48;100.00;96193.06;5042141;28;20088;-46
2021/06/22 22:18:02;;;;;;;19.27;17.42;;;;;;;20.49;100.00;96203.56;5047004;28;20148;-49
2021/06/22 22:20:30;;;;;;;20.48;17.30;;;;;;;20.42;100.00;96197.41;5046818;28;20053;-46
2021/06/22 22:23:00;;;;;;;18.83;17.02;;;;;;;20.66;100.00;96181.66;5047834;28;20068;-46
2021/06/22 22:25:29;;;;;;;19.85;17.67;;;;;;;20.57;100.00;96189.94;5048252;28;20115;-47
2021/06/22 22:27:59;;;;;;;20.58;18.50;;;;;;;20.79;100.00;96206.53;5055115;28;20139;-47
2021/06/22 22:30:28;;;;;;;20.52;17.92;;;;;;;20.69;100.00;96232.16;5045853;28;20077;-49
2021/06/22 22:32:57;;;;;;;21.17;18.73;;;;;;;20.85;100.00;96227.13;5044236;28;20071;-52
2021/06/22 22:35:25;;;;;;;19.90;17.80;;;;;;;20.76;100.00;96232.94;5047926;28;20171;-45
2021/06/22 22:37:54;;;;;;;20.52;17.88;;;;;;;20.71;100.00;96240.78;5044779;28;20525;-54
2021/06/22 22:40:23;;;;;;;20.83;18.70;;;;;;;20.61;100.00;96251.94;5048970;28;20080;-47
2021/06/22 22:42:52;;;;;;;21.88;19.15;;;;;;;20.82;100.00;96261.56;5050503;28;20060;-47
2021/06/22 22:45:22;;;;;;;18.10;16.30;;;;;;;20.30;100.00;96258.00;5045169;28;20064;-49
2021/06/22 22:47:51;;;;;;;;;;;;;;;20.15;100.00;96256.41;5050101;28;20037;-47
2021/06/22 22:50:21;;;;;;;6.32;5.15;;;;;;;20.08;100.00;96252.91;5048075;28;19959;-56
2021/06/22 22:52:50;;;;;;;6.55;4.35;;;;;;;20.02;100.00;96255.59;5046080;28;20106;-52
2021/06/22 22:55:19;;;;;;;5.90;2.55;;;;;;;19.57;100.00;96260.75;5056493;28;20950;-48
2021/06/22 22:57:48;;;;;;;7.47;4.82;;;;;;;19.62;100.00;96279.72;5039910;28;20044;-57
2021/06/22 23:00:18;;;;;;;7.25;2.60;;;;;;;19.36;100.00;96253.75;5048126;28;20538;-54
2021/06/22 23:02:48;;;;;;;;;;;;;;;19.09;100.00;96277.78;5035486;28;20084;-53
2021/06/22 23:05:17;;;;;;;4.63;1.70;;;;;;;19.06;100.00;96280.84;5040279;28;19948;-55
2021/06/22 23:07:45;;;;;;;1.98;1.20;;;;;;;18.67;100.00;96287.69;5039392;28;20542;-50
2021/06/22 23:10:17;;;;;;;2.67;1.20;;;;;;;18.58;100.00;96296.94;5051745;28;20084;-51
2021/06/22 23:12:45;;;;;;;3.10;1.20;;;;;;;18.25;100.00;96302.91;5024084;28;20061;-49
2021/06/22 23:15:16;;;;;;;5.70;2.13;;;;;;;18.02;100.00;96281.81;5016744;28;20041;-51
2021/06/22 23:17:44;;;;;;;;;;;;;;;17.77;100.00;96288.63;5020684;28;20072;-48
2021/06/22 23:20:15;;;;;;;4.32;1.60;;;;;;;17.68;100.00;96297.75;5026003;28;21240;-54
2021/06/22 23:22:44;;;;;;;21.08;2.70;;;;;;;17.75;100.00;96302.09;5047325;28;20530;-54
2021/06/22 23:25:13;;;;;;;8.68;1.98;;;;;;;17.77;100.00;96313.44;5049522;28;20041;-64
2021/06/22 23:27:42;;;;;;;4.57;1.80;;;;;;;17.88;100.00;96308.59;5049042;28;20457;-58
2021/06/22 23:30:12;;;;;;;3.83;2.00;;;;;;;17.84;100.00;96310.84;5031972;28;20069;-57
2021/06/22 23:32:41;;;;;;;6.05;2.33;;;;;;;17.87;100.00;96309.63;5023454;28;20099;-60
2021/06/22 23:35:11;;;;;;;4.30;2.33;;;;;;;17.94;100.00;96322.00;5025997;28;20044;-61
2021/06/22 23:37:41;;;;;;;4.72;2.58;;;;;;;17.95;100.00;96334.31;5045364;28;20092;-58
2021/06/22 23:40:10;;;;;;;;;;;;;;;18.07;100.00;96336.47;5049637;28;20071;-61
2021/06/22 23:42:39;;;;;;;2.83;2.38;;;;;;;18.04;100.00;96348.34;5049497;28;19936;-59
2021/06/22 23:45:08;;;;;;;3.38;2.63;;;;;;;18.15;100.00;96355.00;5050453;28;20067;-58
2021/06/22 23:47:37;;;;;;;4.70;2.53;;;;;;;18.03;100.00;96357.34;5060387;28;20515;-61
2021/06/22 23:50:07;;;;;;;2.83;2.53;;;;;;;18.08;100.00;96354.94;5041191;28;20066;-58
2021/06/22 23:52:36;;;;;;;3.47;2.70;;;;;;;18.10;100.00;96363.59;5038280;28;20527;-59
2021/06/22 23:55:08;;;;;;;3.88;2.60;;;;;;;18.13;100.00;96368.50;5040112;28;20110;-59
2021/06/22 23:57:36;;;;;;;4.97;3.53;;;;;;;18.17;100.00;96375.13;5048850;28;20060;-63
